sensor_id;sensor_type;location;lat;lon;timestamp;temperature;humidity
31074;DHT22;17730;53.552;9.940;2023-05-10T00:00:26;14.10;80.40
31074;DHT22;17730;53.552;9.940;2023-05-10T00:02:52;14.10;81.40
31074;DHT22;17730;53.552;9.940;2023-05-10T00:05:17;14.10;81.60
31074;DHT22;17730;53.552;9.940;2023-05-10T00:07:43;14.10;82.30
31074;DHT22;17730;53.552;9.940;2023-05-10T00:10:11;14.00;83.80
31074;DHT22;17730;53.552;9.940;2023-05-10T00:12:37;14.00;86.10
31074;DHT22;17730;53.552;9.940;2023-05-10T00:15:02;13.90;86.90
31074;DHT22;17730;53.552;9.940;2023-05-10T00:17:28;13.80;88.40
31074;DHT22;17730;53.552;9.940;2023-05-10T00:19:53;13.80;89.90
31074;DHT22;17730;53.552;9.940;2023-05-10T00:22:19;13.80;90.40
31074;DHT22;17730;53.552;9.940;2023-05-10T00:24:45;13.80;90.70
31074;DHT22;17730;53.552;9.940;2023-05-10T00:27:11;13.80;90.80
31074;DHT22;17730;53.552;9.940;2023-05-10T00:29:36;13.80;91.00
31074;DHT22;17730;53.552;9.940;2023-05-10T00:32:01;13.80;91.30
31074;DHT22;17730;53.552;9.940;2023-05-10T00:34:27;13.80;91.40
31074;DHT22;17730;53.552;9.940;2023-05-10T00:36:52;13.70;91.50
31074;DHT22;17730;53.552;9.940;2023-05-10T00:39:18;13.70;91.60
31074;DHT22;17730;53.552;9.940;2023-05-10T00:41:43;13.70;92.00
31074;DHT22;17730;53.552;9.940;2023-05-10T00:44:09;13.60;92.30
31074;DHT22;17730;53.552;9.940;2023-05-10T00:46:34;13.60;92.60
31074;DHT22;17730;53.552;9.940;2023-05-10T00:49:00;13.60;92.80
31074;DHT22;17730;53.552;9.940;2023-05-10T00:51:25;13.50;93.00
31074;DHT22;17730;53.552;9.940;2023-05-10T00:53:51;13.50;93.30
31074;DHT22;17730;53.552;9.940;2023-05-10T00:56:16;13.50;93.60
31074;DHT22;17730;53.552;9.940;2023-05-10T00:58:42;13.40;94.20
31074;DHT22;17730;53.552;9.940;2023-05-10T01:01:08;13.40;94.30
31074;DHT22;17730;53.552;9.940;2023-05-10T01:03:34;13.40;94.70
31074;DHT22;17730;53.552;9.940;2023-05-10T01:06:00;13.30;94.90
31074;DHT22;17730;53.552;9.940;2023-05-10T01:08:26;13.30;95.10
31074;DHT22;17730;53.552;9.940;2023-05-10T01:10:51;13.30;95.40
31074;DHT22;17730;53.552;9.940;2023-05-10T01:13:26;13.30;95.70
31074;DHT22;17730;53.552;9.940;2023-05-10T01:15:52;13.20;95.90
31074;DHT22;17730;53.552;9.940;2023-05-10T01:18:18;13.20;96.40
31074;DHT22;17730;53.552;9.940;2023-05-10T01:20:45;13.10;96.70
31074;DHT22;17730;53.552;9.940;2023-05-10T01:34:00;13.00;97.30
31074;DHT22;17730;53.552;9.940;2023-05-10T01:36:31;13.00;97.50
31074;DHT22;17730;53.552;9.940;2023-05-10T01:46:24;12.90;98.00
31074;DHT22;17730;53.552;9.940;2023-05-10T01:48:54;12.90;98.30
31074;DHT22;17730;53.552;9.940;2023-05-10T01:51:22;12.90;98.50
31074;DHT22;17730;53.552;9.940;2023-05-10T01:53:48;12.90;98.70
31074;DHT22;17730;53.552;9.940;2023-05-10T01:56:14;12.80;98.80
31074;DHT22;17730;53.552;9.940;2023-05-10T01:58:40;12.70;99.20
31074;DHT22;17730;53.552;9.940;2023-05-10T02:01:07;12.70;99.60
31074;DHT22;17730;53.552;9.940;2023-05-10T02:03:33;12.70;99.90
31074;DHT22;17730;53.552;9.940;2023-05-10T02:06:00;12.60;99.90
31074;DHT22;17730;53.552;9.940;2023-05-10T02:08:26;12.60;99.90
31074;DHT22;17730;53.552;9.940;2023-05-10T02:10:53;12.60;99.90
31074;DHT22;17730;53.552;9.940;2023-05-10T02:13:20;12.50;99.90
31074;DHT22;17730;53.552;9.940;2023-05-10T02:15:46;12.50;99.90
31074;DHT22;17730;53.552;9.940;2023-05-10T02:18:13;12.60;99.90
31074;DHT22;17730;53.552;9.940;2023-05-10T02:20:38;12.50;99.90
31074;DHT22;17730;53.552;9.940;2023-05-10T02:23:04;12.50;99.90
31074;DHT22;17730;53.552;9.940;2023-05-10T02:25:30;12.40;99.90
31074;DHT22;17730;53.552;9.940;2023-05-10T02:27:57;12.40;99.90
31074;DHT22;17730;53.552;9.940;2023-05-10T02:30:23;12.30;99.90
31074;DHT22;17730;53.552;9.940;2023-05-10T02:32:49;12.30;99.90
31074;DHT22;17730;53.552;9.940;2023-05-10T02:35:14;12.30;99.90
31074;DHT22;17730;53.552;9.940;2023-05-10T02:37:41;12.30;99.90
31074;DHT22;17730;53.552;9.940;2023-05-10T02:40:07;12.30;99.90
31074;DHT22;17730;53.552;9.940;2023-05-10T02:42:35;12.30;99.90
31074;DHT22;17730;53.552;9.940;2023-05-10T02:45:01;12.20;99.90
31074;DHT22;17730;53.552;9.940;2023-05-10T02:47:28;12.20;99.90
31074;DHT22;17730;53.552;9.940;2023-05-10T02:49:54;12.20;99.90
31074;DHT22;17730;53.552;9.940;2023-05-10T02:52:21;12.20;99.90
31074;DHT22;17730;53.552;9.940;2023-05-10T02:54:49;12.20;99.90
31074;DHT22;17730;53.552;9.940;2023-05-10T02:57:16;12.20;99.90
31074;DHT22;17730;53.552;9.940;2023-05-10T02:59:44;12.20;99.90
31074;DHT22;17730;53.552;9.940;2023-05-10T03:02:12;12.20;99.90
31074;DHT22;17730;53.552;9.940;2023-05-10T03:04:37;12.20;99.90
31074;DHT22;17730;53.552;9.940;2023-05-10T03:07:03;12.20;99.90
31074;DHT22;17730;53.552;9.940;2023-05-10T03:09:28;12.20;99.90
31074;DHT22;17730;53.552;9.940;2023-05-10T03:12:04;12.30;99.90
31074;DHT22;17730;53.552;9.940;2023-05-10T03:14:57;12.30;99.90
31074;DHT22;17730;53.552;9.940;2023-05-10T03:22:23;12.40;99.90
31074;DHT22;17730;53.552;9.940;2023-05-10T03:24:50;12.40;99.90
31074;DHT22;17730;53.552;9.940;2023-05-10T03:27:16;12.50;99.90
31074;DHT22;17730;53.552;9.940;2023-05-10T03:29:42;12.50;99.90
31074;DHT22;17730;53.552;9.940;2023-05-10T03:32:09;12.50;99.90
31074;DHT22;17730;53.552;9.940;2023-05-10T03:34:34;12.50;99.90
31074;DHT22;17730;53.552;9.940;2023-05-10T03:37:06;12.60;99.90
31074;DHT22;17730;53.552;9.940;2023-05-10T03:39:31;12.70;99.90
31074;DHT22;17730;53.552;9.940;2023-05-10T03:41:57;12.80;99.90
31074;DHT22;17730;53.552;9.940;2023-05-10T03:44:22;13.00;99.70
31074;DHT22;17730;53.552;9.940;2023-05-10T03:46:48;13.10;99.20
31074;DHT22;17730;53.552;9.940;2023-05-10T03:49:13;13.10;99.00
31074;DHT22;17730;53.552;9.940;2023-05-10T03:51:39;13.20;99.10
31074;DHT22;17730;53.552;9.940;2023-05-10T03:54:04;13.10;98.90
31074;DHT22;17730;53.552;9.940;2023-05-10T03:56:30;13.10;98.90
31074;DHT22;17730;53.552;9.940;2023-05-10T03:58:55;13.20;98.90
31074;DHT22;17730;53.552;9.940;2023-05-10T04:01:21;13.30;98.60
31074;DHT22;17730;53.552;9.940;2023-05-10T04:03:46;13.30;98.50
31074;DHT22;17730;53.552;9.940;2023-05-10T04:06:12;13.40;98.40
31074;DHT22;17730;53.552;9.940;2023-05-10T04:08:37;13.50;98.20
31074;DHT22;17730;53.552;9.940;2023-05-10T04:11:09;13.50;98.00
31074;DHT22;17730;53.552;9.940;2023-05-10T04:13:35;13.60;97.80
31074;DHT22;17730;53.552;9.940;2023-05-10T04:16:01;13.60;97.80
31074;DHT22;17730;53.552;9.940;2023-05-10T04:18:27;13.70;97.60
31074;DHT22;17730;53.552;9.940;2023-05-10T04:20:52;13.70;97.50
31074;DHT22;17730;53.552;9.940;2023-05-10T04:23:17;13.70;97.60
31074;DHT22;17730;53.552;9.940;2023-05-10T04:25:43;13.60;97.50
31074;DHT22;17730;53.552;9.940;2023-05-10T04:28:08;13.60;97.50
31074;DHT22;17730;53.552;9.940;2023-05-10T04:30:34;13.60;97.50
31074;DHT22;17730;53.552;9.940;2023-05-10T04:33:00;13.60;97.60
31074;DHT22;17730;53.552;9.940;2023-05-10T04:35:27;13.70;97.60
31074;DHT22;17730;53.552;9.940;2023-05-10T04:37:53;13.70;97.50
31074;DHT22;17730;53.552;9.940;2023-05-10T04:40:18;13.60;97.30
31074;DHT22;17730;53.552;9.940;2023-05-10T04:42:44;13.70;97.30
31074;DHT22;17730;53.552;9.940;2023-05-10T04:45:10;13.80;97.30
31074;DHT22;17730;53.552;9.940;2023-05-10T04:47:35;13.80;97.10
31074;DHT22;17730;53.552;9.940;2023-05-10T04:50:02;13.80;97.30
31074;DHT22;17730;53.552;9.940;2023-05-10T04:52:28;13.80;97.20
31074;DHT22;17730;53.552;9.940;2023-05-10T04:54:54;13.90;97.10
31074;DHT22;17730;53.552;9.940;2023-05-10T04:57:19;13.90;97.00
31074;DHT22;17730;53.552;9.940;2023-05-10T04:59:44;14.00;96.70
31074;DHT22;17730;53.552;9.940;2023-05-10T05:02:10;14.00;96.60
31074;DHT22;17730;53.552;9.940;2023-05-10T05:04:35;14.10;96.60
31074;DHT22;17730;53.552;9.940;2023-05-10T05:07:01;14.10;96.60
31074;DHT22;17730;53.552;9.940;2023-05-10T05:09:26;14.20;96.70
31074;DHT22;17730;53.552;9.940;2023-05-10T05:11:52;14.30;96.50
31074;DHT22;17730;53.552;9.940;2023-05-10T05:14:17;14.40;96.10
31074;DHT22;17730;53.552;9.940;2023-05-10T05:16:43;14.50;95.80
31074;DHT22;17730;53.552;9.940;2023-05-10T05:19:08;14.40;95.60
31074;DHT22;17730;53.552;9.940;2023-05-10T05:21:34;14.50;95.60
31074;DHT22;17730;53.552;9.940;2023-05-10T05:23:59;14.50;95.40
31074;DHT22;17730;53.552;9.940;2023-05-10T05:26:26;14.50;95.60
31074;DHT22;17730;53.552;9.940;2023-05-10T05:28:51;14.60;95.50
31074;DHT22;17730;53.552;9.940;2023-05-10T05:31:19;14.60;95.40
31074;DHT22;17730;53.552;9.940;2023-05-10T05:33:45;14.70;95.30
31074;DHT22;17730;53.552;9.940;2023-05-10T05:36:11;14.70;95.10
31074;DHT22;17730;53.552;9.940;2023-05-10T05:38:36;14.80;95.10
31074;DHT22;17730;53.552;9.940;2023-05-10T05:41:02;14.90;95.00
31074;DHT22;17730;53.552;9.940;2023-05-10T05:43:28;15.00;94.90
31074;DHT22;17730;53.552;9.940;2023-05-10T05:45:53;15.10;94.70
31074;DHT22;17730;53.552;9.940;2023-05-10T05:48:19;15.30;94.50
31074;DHT22;17730;53.552;9.940;2023-05-10T05:50:44;15.50;94.20
31074;DHT22;17730;53.552;9.940;2023-05-10T05:53:10;15.60;93.80
31074;DHT22;17730;53.552;9.940;2023-05-10T05:55:36;15.70;93.50
31074;DHT22;17730;53.552;9.940;2023-05-10T05:58:01;15.70;93.20
31074;DHT22;17730;53.552;9.940;2023-05-10T06:00:27;15.70;93.10
31074;DHT22;17730;53.552;9.940;2023-05-10T06:02:52;15.80;92.90
31074;DHT22;17730;53.552;9.940;2023-05-10T06:05:18;15.80;92.90
31074;DHT22;17730;53.552;9.940;2023-05-10T06:07:43;15.90;92.50
31074;DHT22;17730;53.552;9.940;2023-05-10T06:10:09;15.90;92.40
31074;DHT22;17730;53.552;9.940;2023-05-10T06:12:35;15.90;92.30
31074;DHT22;17730;53.552;9.940;2023-05-10T06:15:01;15.90;92.10
31074;DHT22;17730;53.552;9.940;2023-05-10T06:17:26;15.90;91.80
31074;DHT22;17730;53.552;9.940;2023-05-10T06:19:52;15.90;92.10
31074;DHT22;17730;53.552;9.940;2023-05-10T06:22:18;16.00;92.00
31074;DHT22;17730;53.552;9.940;2023-05-10T06:24:43;16.00;91.90
31074;DHT22;17730;53.552;9.940;2023-05-10T06:27:09;16.00;91.90
31074;DHT22;17730;53.552;9.940;2023-05-10T06:29:35;16.10;91.90
31074;DHT22;17730;53.552;9.940;2023-05-10T06:32:00;16.10;91.80
31074;DHT22;17730;53.552;9.940;2023-05-10T06:34:26;16.10;91.90
31074;DHT22;17730;53.552;9.940;2023-05-10T06:36:51;16.20;91.90
31074;DHT22;17730;53.552;9.940;2023-05-10T06:39:17;16.20;92.00
31074;DHT22;17730;53.552;9.940;2023-05-10T06:41:42;16.30;92.00
31074;DHT22;17730;53.552;9.940;2023-05-10T06:44:08;16.40;92.00
31074;DHT22;17730;53.552;9.940;2023-05-10T06:46:34;16.60;91.50
31074;DHT22;17730;53.552;9.940;2023-05-10T06:48:59;16.70;91.30
31074;DHT22;17730;53.552;9.940;2023-05-10T06:51:25;16.80;90.90
31074;DHT22;17730;53.552;9.940;2023-05-10T06:53:51;16.90;90.70
31074;DHT22;17730;53.552;9.940;2023-05-10T06:56:16;17.00;90.40
31074;DHT22;17730;53.552;9.940;2023-05-10T06:58:42;17.20;90.20
31074;DHT22;17730;53.552;9.940;2023-05-10T07:01:07;17.40;90.00
31074;DHT22;17730;53.552;9.940;2023-05-10T07:03:33;17.60;88.90
31074;DHT22;17730;53.552;9.940;2023-05-10T07:06:02;17.90;87.20
31074;DHT22;17730;53.552;9.940;2023-05-10T07:08:29;18.20;85.70
31074;DHT22;17730;53.552;9.940;2023-05-10T07:10:59;18.30;84.70
31074;DHT22;17730;53.552;9.940;2023-05-10T07:13:25;18.30;83.30
31074;DHT22;17730;53.552;9.940;2023-05-10T07:15:51;18.40;83.20
31074;DHT22;17730;53.552;9.940;2023-05-10T07:18:16;18.50;82.70
31074;DHT22;17730;53.552;9.940;2023-05-10T07:20:42;18.80;82.10
31074;DHT22;17730;53.552;9.940;2023-05-10T07:23:07;18.90;80.10
31074;DHT22;17730;53.552;9.940;2023-05-10T07:25:32;19.00;79.10
31074;DHT22;17730;53.552;9.940;2023-05-10T07:27:58;19.00;77.80
31074;DHT22;17730;53.552;9.940;2023-05-10T07:30:27;19.10;76.00
31074;DHT22;17730;53.552;9.940;2023-05-10T07:32:52;19.30;75.80
31074;DHT22;17730;53.552;9.940;2023-05-10T07:35:18;19.40;76.10
31074;DHT22;17730;53.552;9.940;2023-05-10T07:37:43;19.50;75.10
31074;DHT22;17730;53.552;9.940;2023-05-10T07:40:09;19.60;72.90
31074;DHT22;17730;53.552;9.940;2023-05-10T07:42:34;19.50;72.00
31074;DHT22;17730;53.552;9.940;2023-05-10T07:45:00;19.70;71.80
31074;DHT22;17730;53.552;9.940;2023-05-10T07:47:25;19.70;71.40
31074;DHT22;17730;53.552;9.940;2023-05-10T07:49:51;20.00;70.50
31074;DHT22;17730;53.552;9.940;2023-05-10T07:52:16;20.00;69.50
31074;DHT22;17730;53.552;9.940;2023-05-10T07:54:42;20.00;68.90
31074;DHT22;17730;53.552;9.940;2023-05-10T07:57:07;20.00;68.80
31074;DHT22;17730;53.552;9.940;2023-05-10T07:59:33;20.10;69.20
31074;DHT22;17730;53.552;9.940;2023-05-10T08:01:58;20.10;68.80
31074;DHT22;17730;53.552;9.940;2023-05-10T08:04:24;20.10;68.30
31074;DHT22;17730;53.552;9.940;2023-05-10T08:06:49;20.00;68.80
31074;DHT22;17730;53.552;9.940;2023-05-10T08:09:15;19.80;69.90
31074;DHT22;17730;53.552;9.940;2023-05-10T08:11:41;19.80;70.70
31074;DHT22;17730;53.552;9.940;2023-05-10T08:14:06;20.10;70.00
31074;DHT22;17730;53.552;9.940;2023-05-10T08:16:32;20.20;68.70
31074;DHT22;17730;53.552;9.940;2023-05-10T08:18:57;20.10;68.50
31074;DHT22;17730;53.552;9.940;2023-05-10T08:21:23;20.20;67.80
31074;DHT22;17730;53.552;9.940;2023-05-10T08:23:48;20.30;68.70
31074;DHT22;17730;53.552;9.940;2023-05-10T08:26:14;20.40;68.20
31074;DHT22;17730;53.552;9.940;2023-05-10T08:28:40;20.50;67.90
31074;DHT22;17730;53.552;9.940;2023-05-10T08:31:05;20.60;67.70
31074;DHT22;17730;53.552;9.940;2023-05-10T08:33:31;20.60;67.10
31074;DHT22;17730;53.552;9.940;2023-05-10T08:35:57;20.50;66.90
31074;DHT22;17730;53.552;9.940;2023-05-10T08:38:22;20.50;66.80
31074;DHT22;17730;53.552;9.940;2023-05-10T08:40:48;20.70;66.40
31074;DHT22;17730;53.552;9.940;2023-05-10T08:43:14;20.80;66.40
31074;DHT22;17730;53.552;9.940;2023-05-10T08:45:42;20.90;66.30
31074;DHT22;17730;53.552;9.940;2023-05-10T08:48:08;20.90;66.60
31074;DHT22;17730;53.552;9.940;2023-05-10T08:50:37;20.90;66.10
31074;DHT22;17730;53.552;9.940;2023-05-10T08:53:04;20.90;66.40
31074;DHT22;17730;53.552;9.940;2023-05-10T08:55:29;20.90;67.60
31074;DHT22;17730;53.552;9.940;2023-05-10T08:57:55;20.90;68.20
31074;DHT22;17730;53.552;9.940;2023-05-10T09:00:21;20.90;68.20
31074;DHT22;17730;53.552;9.940;2023-05-10T09:02:48;20.80;67.50
31074;DHT22;17730;53.552;9.940;2023-05-10T09:05:14;20.90;68.40
31074;DHT22;17730;53.552;9.940;2023-05-10T09:07:41;21.00;69.30
31074;DHT22;17730;53.552;9.940;2023-05-10T09:10:07;21.10;69.40
31074;DHT22;17730;53.552;9.940;2023-05-10T09:12:33;21.30;69.40
31074;DHT22;17730;53.552;9.940;2023-05-10T09:14:59;21.40;69.80
31074;DHT22;17730;53.552;9.940;2023-05-10T09:17:25;21.50;70.30
31074;DHT22;17730;53.552;9.940;2023-05-10T09:19:56;21.30;70.60
31074;DHT22;17730;53.552;9.940;2023-05-10T09:22:22;21.20;69.20
31074;DHT22;17730;53.552;9.940;2023-05-10T09:25:02;21.00;70.10
31074;DHT22;17730;53.552;9.940;2023-05-10T09:27:28;20.90;70.60
31074;DHT22;17730;53.552;9.940;2023-05-10T09:29:53;20.70;72.20
31074;DHT22;17730;53.552;9.940;2023-05-10T09:32:20;20.60;74.00
31074;DHT22;17730;53.552;9.940;2023-05-10T09:34:45;20.60;76.10
31074;DHT22;17730;53.552;9.940;2023-05-10T09:37:14;20.50;78.10
31074;DHT22;17730;53.552;9.940;2023-05-10T09:39:40;20.40;81.90
31074;DHT22;17730;53.552;9.940;2023-05-10T09:42:07;20.20;83.90
31074;DHT22;17730;53.552;9.940;2023-05-10T09:44:33;20.00;87.80
31074;DHT22;17730;53.552;9.940;2023-05-10T09:46:59;19.60;90.60
31074;DHT22;17730;53.552;9.940;2023-05-10T09:49:25;19.40;93.20
31074;DHT22;17730;53.552;9.940;2023-05-10T09:52:00;19.30;95.10
31074;DHT22;17730;53.552;9.940;2023-05-10T09:54:26;19.10;95.30
31074;DHT22;17730;53.552;9.940;2023-05-10T09:56:51;19.00;95.90
31074;DHT22;17730;53.552;9.940;2023-05-10T09:59:17;18.70;96.70
31074;DHT22;17730;53.552;9.940;2023-05-10T10:01:44;18.50;97.90
31074;DHT22;17730;53.552;9.940;2023-05-10T10:04:14;18.30;98.70
31074;DHT22;17730;53.552;9.940;2023-05-10T10:06:40;18.00;99.50
31074;DHT22;17730;53.552;9.940;2023-05-10T10:09:06;17.80;99.90
31074;DHT22;17730;53.552;9.940;2023-05-10T10:11:33;17.60;99.90
31074;DHT22;17730;53.552;9.940;2023-05-10T10:13:58;17.50;99.90
31074;DHT22;17730;53.552;9.940;2023-05-10T10:16:24;17.40;99.90
31074;DHT22;17730;53.552;9.940;2023-05-10T10:18:50;17.20;99.90
31074;DHT22;17730;53.552;9.940;2023-05-10T10:21:15;17.20;99.90
31074;DHT22;17730;53.552;9.940;2023-05-10T10:23:41;17.00;99.90
31074;DHT22;17730;53.552;9.940;2023-05-10T10:26:08;16.90;99.90
31074;DHT22;17730;53.552;9.940;2023-05-10T10:28:40;16.80;99.90
31074;DHT22;17730;53.552;9.940;2023-05-10T10:31:28;16.70;99.90
31074;DHT22;17730;53.552;9.940;2023-05-10T10:34:01;16.70;99.90
31074;DHT22;17730;53.552;9.940;2023-05-10T10:36:28;16.80;99.90
31074;DHT22;17730;53.552;9.940;2023-05-10T10:38:54;16.90;99.90
31074;DHT22;17730;53.552;9.940;2023-05-10T10:41:28;17.20;99.90
31074;DHT22;17730;53.552;9.940;2023-05-10T10:44:39;17.40;99.90
31074;DHT22;17730;53.552;9.940;2023-05-10T10:49:24;17.60;99.90
31074;DHT22;17730;53.552;9.940;2023-05-10T10:54:34;17.70;99.90
31074;DHT22;17730;53.552;9.940;2023-05-10T10:57:12;17.60;99.90
31074;DHT22;17730;53.552;9.940;2023-05-10T10:59:42;17.60;99.90
31074;DHT22;17730;53.552;9.940;2023-05-10T11:02:09;17.40;99.90
31074;DHT22;17730;53.552;9.940;2023-05-10T11:04:44;17.30;99.90
31074;DHT22;17730;53.552;9.940;2023-05-10T11:07:15;17.30;99.90
31074;DHT22;17730;53.552;9.940;2023-05-10T11:09:41;17.50;99.90
31074;DHT22;17730;53.552;9.940;2023-05-10T11:12:09;17.60;99.90
31074;DHT22;17730;53.552;9.940;2023-05-10T11:14:35;17.70;99.90
31074;DHT22;17730;53.552;9.940;2023-05-10T11:17:01;17.90;99.90
31074;DHT22;17730;53.552;9.940;2023-05-10T11:19:29;18.10;99.90
31074;DHT22;17730;53.552;9.940;2023-05-10T11:24:30;17.80;99.90
31074;DHT22;17730;53.552;9.940;2023-05-10T11:26:55;17.60;99.90
31074;DHT22;17730;53.552;9.940;2023-05-10T11:29:21;17.60;99.90
31074;DHT22;17730;53.552;9.940;2023-05-10T11:31:47;17.50;99.90
31074;DHT22;17730;53.552;9.940;2023-05-10T11:34:26;17.50;99.90
31074;DHT22;17730;53.552;9.940;2023-05-10T11:36:53;17.40;99.90
31074;DHT22;17730;53.552;9.940;2023-05-10T11:39:19;17.40;99.90
31074;DHT22;17730;53.552;9.940;2023-05-10T11:41:49;17.40;99.90
31074;DHT22;17730;53.552;9.940;2023-05-10T11:44:15;17.30;99.90
31074;DHT22;17730;53.552;9.940;2023-05-10T11:46:40;17.30;99.90
31074;DHT22;17730;53.552;9.940;2023-05-10T11:49:06;17.20;99.90
31074;DHT22;17730;53.552;9.940;2023-05-10T11:51:35;17.20;99.90
31074;DHT22;17730;53.552;9.940;2023-05-10T11:54:01;17.20;99.90
31074;DHT22;17730;53.552;9.940;2023-05-10T11:56:27;17.20;99.90
31074;DHT22;17730;53.552;9.940;2023-05-10T11:58:53;17.10;99.90
31074;DHT22;17730;53.552;9.940;2023-05-10T12:01:20;17.00;99.90
31074;DHT22;17730;53.552;9.940;2023-05-10T12:03:46;16.90;99.90
31074;DHT22;17730;53.552;9.940;2023-05-10T12:06:11;17.00;99.90
31074;DHT22;17730;53.552;9.940;2023-05-10T12:08:37;17.20;99.90
31074;DHT22;17730;53.552;9.940;2023-05-10T12:11:09;17.30;99.90
31074;DHT22;17730;53.552;9.940;2023-05-10T12:13:38;17.50;99.90
31074;DHT22;17730;53.552;9.940;2023-05-10T12:16:18;17.70;99.90
31074;DHT22;17730;53.552;9.940;2023-05-10T12:18:44;17.90;99.90
31074;DHT22;17730;53.552;9.940;2023-05-10T12:21:10;18.20;99.90
31074;DHT22;17730;53.552;9.940;2023-05-10T12:23:37;18.40;99.90
31074;DHT22;17730;53.552;9.940;2023-05-10T12:26:03;18.60;99.90
31074;DHT22;17730;53.552;9.940;2023-05-10T12:28:32;18.60;99.90
31074;DHT22;17730;53.552;9.940;2023-05-10T12:31:01;18.60;99.90
31074;DHT22;17730;53.552;9.940;2023-05-10T12:33:27;18.60;99.90
31074;DHT22;17730;53.552;9.940;2023-05-10T12:36:00;18.50;99.90
31074;DHT22;17730;53.552;9.940;2023-05-10T12:40:51;18.40;99.90
31074;DHT22;17730;53.552;9.940;2023-05-10T12:43:16;18.50;99.90
31074;DHT22;17730;53.552;9.940;2023-05-10T12:45:42;18.60;99.90
31074;DHT22;17730;53.552;9.940;2023-05-10T12:48:07;18.70;99.90
31074;DHT22;17730;53.552;9.940;2023-05-10T12:50:33;18.70;99.90
31074;DHT22;17730;53.552;9.940;2023-05-10T12:52:58;19.00;99.90
31074;DHT22;17730;53.552;9.940;2023-05-10T12:55:23;19.10;99.90
31074;DHT22;17730;53.552;9.940;2023-05-10T12:57:49;19.30;99.90
31074;DHT22;17730;53.552;9.940;2023-05-10T13:00:15;19.50;99.90
31074;DHT22;17730;53.552;9.940;2023-05-10T13:02:41;19.70;99.90
31074;DHT22;17730;53.552;9.940;2023-05-10T13:05:06;19.80;99.90
31074;DHT22;17730;53.552;9.940;2023-05-10T13:07:32;19.90;99.90
31074;DHT22;17730;53.552;9.940;2023-05-10T13:09:57;19.90;99.90
31074;DHT22;17730;53.552;9.940;2023-05-10T13:12:23;20.10;99.90
31074;DHT22;17730;53.552;9.940;2023-05-10T13:14:48;20.10;99.90
31074;DHT22;17730;53.552;9.940;2023-05-10T13:17:14;20.10;99.90
31074;DHT22;17730;53.552;9.940;2023-05-10T13:19:39;20.20;99.90
31074;DHT22;17730;53.552;9.940;2023-05-10T13:22:05;20.10;99.90
31074;DHT22;17730;53.552;9.940;2023-05-10T13:24:33;20.20;99.90
31074;DHT22;17730;53.552;9.940;2023-05-10T13:26:58;20.30;99.90
31074;DHT22;17730;53.552;9.940;2023-05-10T13:29:24;20.40;99.90
31074;DHT22;17730;53.552;9.940;2023-05-10T13:31:49;20.40;99.90
31074;DHT22;17730;53.552;9.940;2023-05-10T13:34:15;20.20;99.90
31074;DHT22;17730;53.552;9.940;2023-05-10T13:36:40;20.20;99.90
31074;DHT22;17730;53.552;9.940;2023-05-10T13:39:06;20.20;99.90
31074;DHT22;17730;53.552;9.940;2023-05-10T13:41:31;20.30;99.90
31074;DHT22;17730;53.552;9.940;2023-05-10T13:43:57;20.30;99.90
31074;DHT22;17730;53.552;9.940;2023-05-10T13:46:22;20.10;99.90
31074;DHT22;17730;53.552;9.940;2023-05-10T13:48:48;20.00;99.90
31074;DHT22;17730;53.552;9.940;2023-05-10T13:51:14;19.80;99.90
31074;DHT22;17730;53.552;9.940;2023-05-10T13:53:39;19.70;99.90
31074;DHT22;17730;53.552;9.940;2023-05-10T13:56:05;19.60;99.90
31074;DHT22;17730;53.552;9.940;2023-05-10T13:58:30;19.70;99.90
31074;DHT22;17730;53.552;9.940;2023-05-10T14:00:56;19.80;99.90
31074;DHT22;17730;53.552;9.940;2023-05-10T14:03:21;20.00;99.90
31074;DHT22;17730;53.552;9.940;2023-05-10T14:05:47;20.30;99.90
31074;DHT22;17730;53.552;9.940;2023-05-10T14:08:12;20.60;99.90
31074;DHT22;17730;53.552;9.940;2023-05-10T14:10:38;20.80;99.90
31074;DHT22;17730;53.552;9.940;2023-05-10T14:13:04;20.70;99.90
31074;DHT22;17730;53.552;9.940;2023-05-10T14:15:30;20.60;99.90
31074;DHT22;17730;53.552;9.940;2023-05-10T14:17:55;20.40;99.90
31074;DHT22;17730;53.552;9.940;2023-05-10T14:20:21;20.20;99.90
31074;DHT22;17730;53.552;9.940;2023-05-10T14:22:46;20.20;99.90
31074;DHT22;17730;53.552;9.940;2023-05-10T14:25:12;20.20;99.90
31074;DHT22;17730;53.552;9.940;2023-05-10T14:27:38;20.30;99.90
31074;DHT22;17730;53.552;9.940;2023-05-10T14:30:04;20.40;99.90
31074;DHT22;17730;53.552;9.940;2023-05-10T14:32:29;20.40;99.90
31074;DHT22;17730;53.552;9.940;2023-05-10T14:34:57;20.20;99.90
31074;DHT22;17730;53.552;9.940;2023-05-10T14:37:22;20.10;99.90
31074;DHT22;17730;53.552;9.940;2023-05-10T14:39:48;20.00;99.90
31074;DHT22;17730;53.552;9.940;2023-05-10T14:42:13;19.90;99.90
31074;DHT22;17730;53.552;9.940;2023-05-10T14:44:39;19.80;99.90
31074;DHT22;17730;53.552;9.940;2023-05-10T14:47:04;19.60;99.90
31074;DHT22;17730;53.552;9.940;2023-05-10T14:49:30;19.40;99.90
31074;DHT22;17730;53.552;9.940;2023-05-10T14:51:55;19.30;99.90
31074;DHT22;17730;53.552;9.940;2023-05-10T14:54:21;19.30;99.90
31074;DHT22;17730;53.552;9.940;2023-05-10T14:56:46;19.20;99.90
31074;DHT22;17730;53.552;9.940;2023-05-10T14:59:13;19.00;99.90
31074;DHT22;17730;53.552;9.940;2023-05-10T15:01:39;18.80;99.90
31074;DHT22;17730;53.552;9.940;2023-05-10T15:04:07;18.70;99.90
31074;DHT22;17730;53.552;9.940;2023-05-10T15:06:33;18.50;99.90
31074;DHT22;17730;53.552;9.940;2023-05-10T15:09:00;18.40;99.90
31074;DHT22;17730;53.552;9.940;2023-05-10T15:11:26;18.30;99.90
31074;DHT22;17730;53.552;9.940;2023-05-10T15:13:51;18.40;99.90
31074;DHT22;17730;53.552;9.940;2023-05-10T15:16:17;18.70;99.90
31074;DHT22;17730;53.552;9.940;2023-05-10T15:18:42;19.00;99.90
31074;DHT22;17730;53.552;9.940;2023-05-10T15:21:08;19.10;99.90
31074;DHT22;17730;53.552;9.940;2023-05-10T15:23:34;19.30;99.90
31074;DHT22;17730;53.552;9.940;2023-05-10T15:26:00;19.60;99.90
31074;DHT22;17730;53.552;9.940;2023-05-10T15:28:25;19.70;99.90
31074;DHT22;17730;53.552;9.940;2023-05-10T15:30:51;19.90;99.90
31074;DHT22;17730;53.552;9.940;2023-05-10T15:33:16;19.90;99.90
31074;DHT22;17730;53.552;9.940;2023-05-10T15:35:42;19.90;99.90
31074;DHT22;17730;53.552;9.940;2023-05-10T15:38:08;19.70;99.90
31074;DHT22;17730;53.552;9.940;2023-05-10T15:40:34;19.60;99.90
31074;DHT22;17730;53.552;9.940;2023-05-10T15:42:59;19.50;99.90
31074;DHT22;17730;53.552;9.940;2023-05-10T15:45:25;19.30;99.90
31074;DHT22;17730;53.552;9.940;2023-05-10T15:47:50;19.00;99.90
31074;DHT22;17730;53.552;9.940;2023-05-10T15:50:16;18.80;99.90
31074;DHT22;17730;53.552;9.940;2023-05-10T15:52:42;18.50;99.90
31074;DHT22;17730;53.552;9.940;2023-05-10T15:55:08;18.30;99.90
31074;DHT22;17730;53.552;9.940;2023-05-10T15:57:39;18.10;99.90